createdAt,value
2024-02-26T00:00:15.699Z,69.77
2024-02-26T00:02:43.500Z,69.81
2024-02-26T00:05:11.012Z,69.70
2024-02-26T00:07:39.129Z,69.82
2024-02-26T00:10:07.270Z,70.33
2024-02-26T00:12:34.713Z,69.66
2024-02-26T00:15:02.306Z,69.53
2024-02-26T00:17:30.120Z,70.06
2024-02-26T00:19:57.620Z,70.28
2024-02-26T00:22:25.178Z,69.73
2024-02-26T00:24:52.889Z,70.44
2024-02-26T00:27:20.427Z,70.09
2024-02-26T00:29:47.926Z,70.07
2024-02-26T00:32:15.669Z,70.63
2024-02-26T00:34:43.164Z,70.16
2024-02-26T00:37:10.590Z,70.10
2024-02-26T00:39:38.494Z,70.68
2024-02-26T00:42:06.094Z,70.46
2024-02-26T00:44:33.516Z,69.70
2024-02-26T00:47:01.214Z,70.47
2024-02-26T00:49:28.846Z,70.34
2024-02-26T00:51:56.996Z,70.31
2024-02-26T00:54:24.849Z,70.42
2024-02-26T00:56:52.372Z,69.87
2024-02-26T00:59:19.809Z,70.70
2024-02-26T01:01:47.544Z,71.00
2024-02-26T01:04:15.118Z,70.63
2024-02-26T01:06:42.704Z,69.78
2024-02-26T01:09:10.565Z,70.31
2024-02-26T01:11:38.025Z,70.24
2024-02-26T01:14:05.696Z,70.61
2024-02-26T01:16:33.503Z,70.54
2024-02-26T01:19:01.094Z,70.54
2024-02-26T01:21:30.313Z,70.78
2024-02-26T01:23:58.519Z,71.42
2024-02-26T01:26:26.062Z,71.23
2024-02-26T01:28:53.618Z,70.58
2024-02-26T01:31:21.403Z,70.46
2024-02-26T01:33:49.027Z,70.58
2024-02-26T01:36:16.642Z,70.86
2024-02-26T01:38:44.544Z,70.68
2024-02-26T01:41:12.281Z,70.85
2024-02-26T01:43:39.778Z,70.86
2024-02-26T01:46:07.620Z,70.41
2024-02-26T01:48:35.285Z,70.53
2024-02-26T01:51:02.918Z,71.05
2024-02-26T01:53:31.245Z,70.55
2024-02-26T01:55:59.064Z,70.45
2024-02-26T01:58:26.791Z,70.30
2024-02-26T02:00:54.257Z,70.17
2024-02-26T02:03:22.100Z,70.40
2024-02-26T02:05:49.666Z,70.58
2024-02-26T02:08:17.143Z,70.73
2024-02-26T02:10:44.882Z,70.62
2024-02-26T02:13:12.398Z,70.61
2024-02-26T02:15:39.846Z,70.90
2024-02-26T02:18:07.847Z,70.24
2024-02-26T02:20:35.741Z,70.46
2024-02-26T02:23:03.674Z,70.85
2024-02-26T02:25:31.488Z,71.39
2024-02-26T02:27:59.023Z,70.30
2024-02-26T02:30:27.936Z,70.72
2024-02-26T02:32:55.855Z,70.83
2024-02-26T02:35:23.363Z,71.50
2024-02-26T02:37:52.770Z,70.63
2024-02-26T02:40:20.546Z,71.60
2024-02-26T02:42:48.002Z,71.09
2024-02-26T02:45:15.493Z,71.40
2024-02-26T02:47:43.268Z,71.23
2024-02-26T02:50:10.799Z,70.64
2024-02-26T02:52:38.334Z,71.21
2024-02-26T02:55:06.217Z,71.33
2024-02-26T02:57:33.653Z,70.87
2024-02-26T03:00:01.255Z,70.99
2024-02-26T03:02:30.817Z,70.57
2024-02-26T03:04:58.258Z,70.73
2024-02-26T03:07:25.853Z,71.29
2024-02-26T03:09:53.560Z,70.50
2024-02-26T03:12:21.136Z,70.60
2024-02-26T03:14:48.661Z,71.10
2024-02-26T03:17:16.488Z,70.57
2024-02-26T03:19:47.824Z,70.89
2024-02-26T03:22:15.401Z,71.03
2024-02-26T03:24:43.144Z,71.00
2024-02-26T03:27:10.928Z,70.81
2024-02-26T03:29:38.799Z,71.36
2024-02-26T03:32:07.147Z,70.40
2024-02-26T03:34:40.334Z,71.21
2024-02-26T03:37:10.438Z,71.26
2024-02-26T03:39:38.415Z,71.41
2024-02-26T03:42:05.912Z,71.43
2024-02-26T03:44:33.590Z,71.59
2024-02-26T03:47:01.034Z,70.77
2024-02-26T03:49:28.712Z,71.20
2024-02-26T03:51:57.114Z,71.31
2024-02-26T03:54:24.543Z,70.55
2024-02-26T03:56:51.989Z,70.75
2024-02-26T03:59:20.241Z,70.23
2024-02-26T04:01:50.964Z,70.76
2024-02-26T04:04:18.664Z,70.20
2024-02-26T04:06:49.244Z,70.44
2024-02-26T04:09:16.831Z,69.94
2024-02-26T04:11:44.772Z,70.50
2024-02-26T04:14:13.747Z,70.24
2024-02-26T04:16:41.406Z,70.75
2024-02-26T04:19:09.274Z,69.93
2024-02-26T04:21:36.818Z,70.27
2024-02-26T04:24:04.613Z,70.28
2024-02-26T04:26:32.348Z,69.80
2024-02-26T04:28:59.802Z,70.59
2024-02-26T04:31:31.527Z,70.32
2024-02-26T04:33:59.384Z,69.75
2024-02-26T04:36:29.960Z,69.73
2024-02-26T04:38:57.637Z,70.15
2024-02-26T04:41:25.422Z,69.94
2024-02-26T04:43:52.850Z,70.08
2024-02-26T04:46:20.300Z,70.66
2024-02-26T04:48:48.215Z,70.55
2024-02-26T04:51:15.783Z,69.68
2024-02-26T04:53:43.181Z,69.87
2024-02-26T04:56:10.900Z,70.27
2024-02-26T04:58:38.287Z,70.08
2024-02-26T05:01:05.770Z,70.44
2024-02-26T05:03:36.888Z,71.09
2024-02-26T05:06:06.272Z,71.15
2024-02-26T05:08:37.004Z,73.09
2024-02-26T05:11:05.141Z,74.26
2024-02-26T05:13:33.165Z,73.66
2024-02-26T05:16:01.144Z,73.26
2024-02-26T05:18:28.954Z,72.44
2024-02-26T05:20:56.586Z,72.43
2024-02-26T05:23:24.364Z,75.50
2024-02-26T05:25:51.787Z,72.65
2024-02-26T05:28:21.667Z,71.80
2024-02-26T05:30:49.534Z,72.14
2024-02-26T05:33:18.918Z,71.45
2024-02-26T05:35:47.129Z,71.31
2024-02-26T05:38:15.172Z,71.24
2024-02-26T05:40:42.724Z,72.20
2024-02-26T05:43:10.126Z,70.97
2024-02-26T05:45:37.892Z,72.06
2024-02-26T05:48:05.782Z,71.32
2024-02-26T05:50:33.363Z,70.53
2024-02-26T05:53:01.229Z,71.65
2024-02-26T05:55:28.931Z,71.42
2024-02-26T05:57:56.335Z,71.05
2024-02-26T06:00:24.115Z,69.09
2024-02-26T06:02:51.941Z,69.52
2024-02-26T06:05:19.546Z,69.58
2024-02-26T06:07:47.073Z,70.19
2024-02-26T06:10:17.856Z,70.60
2024-02-26T06:12:45.606Z,69.87
2024-02-26T06:15:13.301Z,69.74
2024-02-26T06:17:41.113Z,69.32
2024-02-26T06:20:13.008Z,69.70
2024-02-26T06:22:41.996Z,68.12
2024-02-26T06:25:09.476Z,70.20
2024-02-26T06:27:37.062Z,69.78
2024-02-26T06:30:05.213Z,68.62
2024-02-26T06:32:32.835Z,68.44
2024-02-26T06:35:00.543Z,71.71
2024-02-26T06:37:28.350Z,70.18
2024-02-26T06:39:55.875Z,69.08
2024-02-26T06:42:23.436Z,70.92
2024-02-26T06:44:51.295Z,69.63
2024-02-26T06:47:18.945Z,71.52
2024-02-26T06:49:46.616Z,70.87
2024-02-26T06:52:14.614Z,69.02
2024-02-26T06:54:42.939Z,69.30
2024-02-26T06:57:10.499Z,67.56
2024-02-26T06:59:38.556Z,67.41
2024-02-26T07:02:06.108Z,67.42
2024-02-26T07:04:35.398Z,68.07
2024-02-26T07:07:03.673Z,68.44
2024-02-26T07:09:31.247Z,70.16
2024-02-26T07:12:01.251Z,69.72
2024-02-26T07:14:29.704Z,67.48
2024-02-26T07:16:57.683Z,68.52
2024-02-26T07:19:25.227Z,67.70
2024-02-26T07:21:52.962Z,67.62
2024-02-26T07:24:20.645Z,68.60
2024-02-26T07:26:48.309Z,68.26
2024-02-26T07:29:16.020Z,67.12
2024-02-26T07:31:43.505Z,67.58
2024-02-26T07:34:11.076Z,67.33
2024-02-26T07:36:38.899Z,66.46
2024-02-26T07:39:06.433Z,65.32
2024-02-26T07:41:34.233Z,63.60
2024-02-26T07:44:02.096Z,62.87
2024-02-26T07:46:29.564Z,62.71
2024-02-26T07:48:57.095Z,62.22
2024-02-26T07:51:25.074Z,61.35
2024-02-26T07:53:54.158Z,62.02
2024-02-26T07:56:21.792Z,61.77
2024-02-26T07:58:49.469Z,60.52
2024-02-26T08:01:16.899Z,60.46
2024-02-26T08:03:44.844Z,60.17
2024-02-26T08:06:12.487Z,59.71
2024-02-26T08:08:40.068Z,58.71
2024-02-26T08:11:07.756Z,57.95
2024-02-26T08:13:35.253Z,58.06
2024-02-26T08:16:02.889Z,58.07
2024-02-26T08:18:30.735Z,57.86
2024-02-26T08:20:58.306Z,59.36
2024-02-26T08:23:26.405Z,58.26
2024-02-26T08:25:54.264Z,58.36
2024-02-26T08:28:21.667Z,58.48
2024-02-26T08:30:49.147Z,58.49
2024-02-26T08:33:17.300Z,58.78
2024-02-26T08:35:44.998Z,58.69
2024-02-26T08:38:12.465Z,58.37
2024-02-26T08:40:40.225Z,58.38
2024-02-26T08:43:07.872Z,58.21
2024-02-26T08:45:35.347Z,57.71
2024-02-26T08:48:03.315Z,57.54
2024-02-26T08:50:30.908Z,58.00
2024-02-26T08:52:58.352Z,58.58
2024-02-26T08:55:26.103Z,58.48
2024-02-26T08:57:53.651Z,58.65
2024-02-26T09:00:21.842Z,59.08
2024-02-26T09:02:50.646Z,58.56
2024-02-26T09:05:18.278Z,58.79
2024-02-26T09:07:46.206Z,58.85
2024-02-26T09:10:14.120Z,59.35
2024-02-26T09:12:41.629Z,59.12
2024-02-26T09:15:09.460Z,58.58
2024-02-26T09:17:37.594Z,59.57
2024-02-26T09:20:06.931Z,59.71
2024-02-26T09:22:35.979Z,59.66
2024-02-26T09:25:04.854Z,59.87
2024-02-26T09:27:32.446Z,59.10
2024-02-26T09:29:59.937Z,59.13
2024-02-26T09:32:27.740Z,58.82
2024-02-26T09:34:55.317Z,59.19
2024-02-26T09:37:22.954Z,57.50
2024-02-26T09:39:50.948Z,58.37
2024-02-26T09:42:19.839Z,59.37
2024-02-26T09:44:47.465Z,60.49
2024-02-26T09:47:16.693Z,61.13
2024-02-26T09:49:44.378Z,59.50
2024-02-26T09:52:12.297Z,59.04
2024-02-26T09:54:40.080Z,59.02
2024-02-26T09:57:08.823Z,58.63
2024-02-26T09:59:41.713Z,58.38
2024-02-26T10:02:13.835Z,58.63
2024-02-26T10:04:42.218Z,58.52
2024-02-26T10:07:13.836Z,58.25
2024-02-26T10:09:41.882Z,57.38
2024-02-26T10:12:12.887Z,55.91
2024-02-26T10:14:40.550Z,56.16
2024-02-26T10:17:09.723Z,55.95
2024-02-26T10:19:39.077Z,55.88
2024-02-26T10:22:07.411Z,55.01
2024-02-26T10:24:38.106Z,54.82
2024-02-26T10:27:05.787Z,54.36
2024-02-26T10:29:33.267Z,57.32
2024-02-26T10:32:01.049Z,54.95
2024-02-26T10:34:29.123Z,55.02
2024-02-26T10:36:56.914Z,54.56
2024-02-26T10:39:24.895Z,54.60
2024-02-26T10:41:52.496Z,55.60
2024-02-26T10:44:20.531Z,56.69
2024-02-26T10:46:51.204Z,54.67
2024-02-26T10:49:22.850Z,54.63
2024-02-26T10:51:57.735Z,53.98
2024-02-26T10:54:27.186Z,53.28
2024-02-26T10:56:55.186Z,53.00
2024-02-26T10:59:24.350Z,52.57
2024-02-26T11:01:52.056Z,51.78
2024-02-26T11:04:19.978Z,52.37
2024-02-26T11:06:47.886Z,52.22
2024-02-26T11:09:15.848Z,52.03
2024-02-26T11:11:43.767Z,51.52
2024-02-26T11:14:11.377Z,50.90
2024-02-26T11:16:39.420Z,50.20
2024-02-26T11:19:08.238Z,50.04
2024-02-26T11:21:43.378Z,49.33
2024-02-26T11:24:15.349Z,49.37
2024-02-26T11:27:03.561Z,49.92
2024-02-26T11:29:39.983Z,49.13
2024-02-26T11:32:07.470Z,49.10
2024-02-26T11:34:35.425Z,49.09
2024-02-26T11:37:17.826Z,49.52
2024-02-26T11:39:46.383Z,50.19
2024-02-26T11:42:17.162Z,49.76
2024-02-26T11:44:45.032Z,48.76
2024-02-26T11:47:19.798Z,49.13
2024-02-26T11:49:47.738Z,49.62
2024-02-26T11:52:15.688Z,49.44
2024-02-26T11:54:46.235Z,49.71
2024-02-26T11:57:30.270Z,49.53
2024-02-26T12:00:23.681Z,49.87
2024-02-26T12:02:58.978Z,49.42
2024-02-26T12:05:29.243Z,49.66
2024-02-26T12:08:00.913Z,48.50
2024-02-26T12:10:35.294Z,48.39
2024-02-26T12:13:14.818Z,48.96
2024-02-26T12:15:55.910Z,49.06
2024-02-26T12:18:23.874Z,49.53
2024-02-26T12:21:02.304Z,48.63
2024-02-26T12:23:30.151Z,48.93
2024-02-26T12:26:00.875Z,49.07
2024-02-26T12:28:31.530Z,49.53
2024-02-26T12:31:00.692Z,50.38
2024-02-26T12:33:28.804Z,49.48
2024-02-26T12:35:56.553Z,48.35
2024-02-26T12:38:24.369Z,48.68
2024-02-26T12:40:51.833Z,49.38
2024-02-26T12:43:19.420Z,49.37
2024-02-26T12:45:48.644Z,49.11
2024-02-26T12:48:16.693Z,49.69
2024-02-26T12:50:48.730Z,49.89
2024-02-26T12:53:16.687Z,50.37
2024-02-26T12:55:44.174Z,49.95
2024-02-26T12:58:12.221Z,49.08
2024-02-26T13:00:40.150Z,49.17
2024-02-26T13:03:07.762Z,48.78
2024-02-26T13:05:35.389Z,48.66
2024-02-26T13:08:06.136Z,49.21
2024-02-26T13:10:35.919Z,48.55
2024-02-26T13:13:03.825Z,48.77
2024-02-26T13:15:31.587Z,48.24
2024-02-26T13:17:59.564Z,49.05
2024-02-26T13:20:31.225Z,49.31
2024-02-26T13:23:02.881Z,49.45
2024-02-26T13:25:30.641Z,49.23
2024-02-26T13:28:10.976Z,48.71
2024-02-26T13:30:38.871Z,48.31
2024-02-26T13:33:13.146Z,48.26
2024-02-26T13:35:48.231Z,49.56
2024-02-26T13:38:15.739Z,48.37
2024-02-26T13:40:43.195Z,48.09
2024-02-26T13:43:10.988Z,47.61
2024-02-26T13:45:39.390Z,48.11
2024-02-26T13:48:08.381Z,49.05
2024-02-26T13:50:36.242Z,48.75
2024-02-26T13:53:08.827Z,48.80
2024-02-26T13:55:41.161Z,47.88
2024-02-26T13:58:13.567Z,47.84
2024-02-26T14:00:43.247Z,48.17
2024-02-26T14:03:13.298Z,48.35
2024-02-26T14:05:46.184Z,48.18
2024-02-26T14:08:16.435Z,48.44
2024-02-26T14:10:44.209Z,48.24
2024-02-26T14:13:11.647Z,48.61
2024-02-26T14:15:40.772Z,49.82
2024-02-26T14:18:11.880Z,48.51
2024-02-26T14:20:51.665Z,49.22
2024-02-26T14:23:23.196Z,48.98
2024-02-26T14:25:54.165Z,49.85
2024-02-26T14:28:25.781Z,49.45
2024-02-26T14:30:57.419Z,49.92
2024-02-26T14:33:25.288Z,49.76
2024-02-26T14:35:52.930Z,50.19
2024-02-26T14:38:22.058Z,50.07
2024-02-26T14:40:51.333Z,50.46
2024-02-26T14:43:23.386Z,50.35
2024-02-26T14:45:57.402Z,50.45
2024-02-26T14:48:29.154Z,50.39
2024-02-26T14:51:00.301Z,50.86
2024-02-26T14:53:27.803Z,51.27
2024-02-26T14:55:55.229Z,51.67
2024-02-26T14:58:22.922Z,52.53
2024-02-26T15:00:50.966Z,53.60
2024-02-26T15:03:19.222Z,53.48
2024-02-26T15:05:47.501Z,53.61
2024-02-26T15:08:16.759Z,53.11
2024-02-26T15:10:49.152Z,53.60
2024-02-26T15:13:19.155Z,53.46
2024-02-26T15:15:47.038Z,54.32
2024-02-26T15:18:17.352Z,54.00
2024-02-26T15:20:46.701Z,55.35
2024-02-26T15:23:14.274Z,55.60
2024-02-26T15:25:42.842Z,55.87
2024-02-26T15:28:16.161Z,56.30
2024-02-26T15:30:43.723Z,55.80
2024-02-26T15:33:13.035Z,55.87
2024-02-26T15:35:43.588Z,55.70
2024-02-26T15:38:11.344Z,56.20
2024-02-26T15:40:38.826Z,55.72
2024-02-26T15:43:06.273Z,55.64
2024-02-26T15:45:34.821Z,55.56
2024-02-26T15:48:02.524Z,55.76
2024-02-26T15:50:29.973Z,56.08
2024-02-26T15:52:59.280Z,56.33
2024-02-26T15:55:26.801Z,56.27
2024-02-26T15:57:54.320Z,56.94
2024-02-26T16:00:22.168Z,57.42
2024-02-26T16:02:52.900Z,57.37
2024-02-26T16:05:20.586Z,57.28
2024-02-26T16:07:54.322Z,57.61
2024-02-26T16:10:22.110Z,57.74
2024-02-26T16:12:54.948Z,58.28
2024-02-26T16:15:23.427Z,58.55
2024-02-26T16:17:52.603Z,58.83
2024-02-26T16:20:20.997Z,58.59
2024-02-26T16:22:49.013Z,58.74
2024-02-26T16:25:17.393Z,58.81
2024-02-26T16:27:45.174Z,58.88
2024-02-26T16:30:13.173Z,58.86
2024-02-26T16:32:41.293Z,59.81
2024-02-26T16:35:09.362Z,59.75
2024-02-26T16:37:37.673Z,59.91
2024-02-26T16:40:06.026Z,60.23
2024-02-26T16:42:33.498Z,60.10
2024-02-26T16:45:01.330Z,60.16
2024-02-26T16:47:29.005Z,60.41
2024-02-26T16:49:56.462Z,60.53
2024-02-26T16:52:24.430Z,60.70
2024-02-26T16:54:52.507Z,61.29
2024-02-26T16:57:21.444Z,60.92
2024-02-26T16:59:49.361Z,61.00
2024-02-26T17:02:17.103Z,60.81
2024-02-26T17:04:44.573Z,61.30
2024-02-26T17:07:12.395Z,62.27
2024-02-26T17:09:39.906Z,62.51
2024-02-26T17:12:10.096Z,62.48
2024-02-26T17:14:37.836Z,62.20
2024-02-26T17:17:07.913Z,62.81
2024-02-26T17:19:36.287Z,62.64
2024-02-26T17:22:10.195Z,62.61
2024-02-26T17:24:37.723Z,62.26
2024-02-26T17:27:07.817Z,62.10
2024-02-26T17:29:35.645Z,62.33
2024-02-26T17:32:09.129Z,62.61
2024-02-26T17:34:39.523Z,62.46
2024-02-26T17:37:07.474Z,62.29
2024-02-26T17:39:35.055Z,62.29
2024-02-26T17:42:03.548Z,62.36
2024-02-26T17:44:37.930Z,62.45
2024-02-26T17:47:05.981Z,62.97
2024-02-26T17:49:33.672Z,62.94
2024-02-26T17:52:01.577Z,62.81
2024-02-26T17:54:30.256Z,62.85
2024-02-26T17:56:58.767Z,63.77
2024-02-26T17:59:26.259Z,64.02
2024-02-26T18:01:54.066Z,63.81
2024-02-26T18:04:21.901Z,63.17
2024-02-26T18:06:49.494Z,63.60
2024-02-26T18:09:18.633Z,63.56
2024-02-26T18:11:46.990Z,63.45
2024-02-26T18:14:14.531Z,63.44
2024-02-26T18:16:42.022Z,63.01
2024-02-26T18:19:09.899Z,63.01
2024-02-26T18:21:37.535Z,63.08
2024-02-26T18:24:05.648Z,62.88
2024-02-26T18:26:35.191Z,63.45
2024-02-26T18:29:03.132Z,63.75
2024-02-26T18:31:33.028Z,63.64
2024-02-26T18:34:00.988Z,64.75
2024-02-26T18:36:28.600Z,63.94
2024-02-26T18:38:56.116Z,64.39
2024-02-26T18:41:25.092Z,63.97
2024-02-26T18:43:53.726Z,63.67
2024-02-26T18:46:21.153Z,63.71
2024-02-26T18:48:49.575Z,63.55
2024-02-26T18:51:17.249Z,64.25
2024-02-26T18:53:45.477Z,64.63
2024-02-26T18:56:13.511Z,64.21
2024-02-26T18:58:40.941Z,64.21
2024-02-26T19:01:08.928Z,63.85
2024-02-26T19:03:36.805Z,64.21
2024-02-26T19:06:07.527Z,64.44
2024-02-26T19:08:36.976Z,64.24
2024-02-26T19:11:07.340Z,64.40
2024-02-26T19:13:35.210Z,64.99
2024-02-26T19:16:03.657Z,64.27
2024-02-26T19:18:33.361Z,64.35
2024-02-26T19:21:01.077Z,64.17
2024-02-26T19:23:28.755Z,63.94
2024-02-26T19:25:56.599Z,64.14
2024-02-26T19:28:24.036Z,64.31
2024-02-26T19:30:51.476Z,63.91
2024-02-26T19:33:21.608Z,64.28
2024-02-26T19:35:50.209Z,64.15
2024-02-26T19:38:21.177Z,64.72
2024-02-26T19:40:48.879Z,64.10
2024-02-26T19:43:16.786Z,64.22
2024-02-26T19:45:46.552Z,64.15
2024-02-26T19:48:14.916Z,65.18
2024-02-26T19:50:45.755Z,65.88
2024-02-26T19:53:13.295Z,65.71
2024-02-26T19:55:42.056Z,65.18
2024-02-26T19:58:09.685Z,65.94
2024-02-26T20:00:37.504Z,65.31
2024-02-26T20:03:07.666Z,65.16
2024-02-26T20:05:35.745Z,65.06
2024-02-26T20:08:03.427Z,65.74
2024-02-26T20:10:31.141Z,65.47
2024-02-26T20:13:00.354Z,65.73
2024-02-26T20:15:27.972Z,65.66
2024-02-26T20:17:55.845Z,64.27
2024-02-26T20:20:30.420Z,64.85
2024-02-26T20:22:58.223Z,66.14
2024-02-26T20:25:25.603Z,65.85
2024-02-26T20:27:52.982Z,65.92
2024-02-26T20:30:22.705Z,66.23
2024-02-26T20:32:50.234Z,66.07
2024-02-26T20:35:17.684Z,66.63
2024-02-26T20:37:45.363Z,65.76
2024-02-26T20:40:12.797Z,65.10
2024-02-26T20:42:40.305Z,65.84
2024-02-26T20:45:09.008Z,65.46
2024-02-26T20:47:36.472Z,65.25
2024-02-26T20:50:06.434Z,66.03
2024-02-26T20:52:34.214Z,66.52
2024-02-26T20:55:01.651Z,66.26
2024-02-26T20:57:29.121Z,65.33
2024-02-26T20:59:59.090Z,65.53
2024-02-26T21:02:30.044Z,65.86
2024-02-26T21:05:01.995Z,65.60
2024-02-26T21:07:31.020Z,64.45
2024-02-26T21:09:58.565Z,64.97
2024-02-26T21:12:26.607Z,64.83
2024-02-26T21:14:54.972Z,64.31
2024-02-26T21:17:22.526Z,64.55
2024-02-26T21:19:52.618Z,64.66
2024-02-26T21:22:20.116Z,65.02
2024-02-26T21:24:47.754Z,64.15
2024-02-26T21:27:15.521Z,64.82
2024-02-26T21:29:42.960Z,64.79
2024-02-26T21:32:10.346Z,65.16
2024-02-26T21:34:38.123Z,65.14
2024-02-26T21:37:05.662Z,64.82
2024-02-26T21:39:33.077Z,65.06
2024-02-26T21:42:00.766Z,64.73
2024-02-26T21:44:28.173Z,65.14
2024-02-26T21:46:55.574Z,66.49
2024-02-26T21:49:23.410Z,64.34
2024-02-26T21:51:50.982Z,65.15
2024-02-26T21:54:18.482Z,65.28
2024-02-26T21:56:46.239Z,65.01
2024-02-26T21:59:14.053Z,65.04
2024-02-26T22:01:41.544Z,64.63
2024-02-26T22:04:09.574Z,64.59
2024-02-26T22:06:37.439Z,64.76
2024-02-26T22:09:09.343Z,65.07
2024-02-26T22:11:37.192Z,64.95
2024-02-26T22:14:04.735Z,64.63
2024-02-26T22:16:32.296Z,65.04
2024-02-26T22:19:02.319Z,64.92
2024-02-26T22:21:29.967Z,64.78
2024-02-26T22:23:57.474Z,64.93
2024-02-26T22:26:25.207Z,64.79
2024-02-26T22:28:52.659Z,64.89
2024-02-26T22:31:20.279Z,65.42
2024-02-26T22:33:48.116Z,65.34
2024-02-26T22:36:15.736Z,66.32
2024-02-26T22:38:43.170Z,66.15
2024-02-26T22:41:10.842Z,65.72
2024-02-26T22:43:38.217Z,67.09
2024-02-26T22:46:05.765Z,66.83
2024-02-26T22:48:33.495Z,66.87
2024-02-26T22:51:00.968Z,66.19
2024-02-26T22:53:28.375Z,66.05
2024-02-26T22:55:56.065Z,66.79
2024-02-26T22:58:23.488Z,66.20
2024-02-26T23:00:52.223Z,66.85
2024-02-26T23:03:20.287Z,67.05
2024-02-26T23:05:48.108Z,69.35
2024-02-26T23:08:18.422Z,69.51
2024-02-26T23:10:46.800Z,69.65
2024-02-26T23:13:14.289Z,68.76
2024-02-26T23:15:41.730Z,67.87
2024-02-26T23:18:09.511Z,67.58
2024-02-26T23:20:37.021Z,67.83
2024-02-26T23:23:05.175Z,67.29
2024-02-26T23:25:33.833Z,67.50
2024-02-26T23:28:01.712Z,67.18
2024-02-26T23:30:29.254Z,66.82
2024-02-26T23:32:57.104Z,70.27
2024-02-26T23:35:24.796Z,69.09
2024-02-26T23:37:52.285Z,70.91
2024-02-26T23:40:19.999Z,69.99
2024-02-26T23:42:47.420Z,68.51
2024-02-26T23:45:14.877Z,67.26
2024-02-26T23:47:42.576Z,67.19
2024-02-26T23:50:10.277Z,66.00
2024-02-26T23:52:37.685Z,66.64
2024-02-26T23:55:05.641Z,65.56
2024-02-26T23:57:33.102Z,66.22
